createdAt,value
2023-05-04T00:00:17.135Z,16.51
2023-05-04T00:02:43.771Z,16.42
2023-05-04T00:05:12.200Z,16.44
2023-05-04T00:07:38.931Z,16.51
2023-05-04T00:10:06.407Z,16.53
2023-05-04T00:12:33.238Z,16.46
2023-05-04T00:15:00.638Z,16.36
2023-05-04T00:17:27.239Z,16.38
2023-05-04T00:19:53.859Z,16.38
2023-05-04T00:22:20.614Z,16.34
2023-05-04T00:24:47.171Z,16.33
2023-05-04T00:27:13.894Z,16.36
2023-05-04T00:29:40.543Z,16.36
2023-05-04T00:32:07.265Z,16.35
2023-05-04T00:34:34.296Z,16.37
2023-05-04T00:37:01.743Z,16.38
2023-05-04T00:39:28.565Z,16.33
2023-05-04T00:41:55.113Z,16.33
2023-05-04T00:44:24.031Z,16.33
2023-05-04T00:46:52.970Z,16.33
2023-05-04T00:49:21.712Z,16.34
2023-05-04T00:51:50.360Z,16.33
2023-05-04T00:54:20.221Z,16.35
2023-05-04T00:56:48.002Z,16.31
2023-05-04T00:59:14.640Z,16.26
2023-05-04T01:01:41.921Z,16.28
2023-05-04T01:04:09.411Z,16.26
2023-05-04T01:07:16.779Z,16.21
2023-05-04T01:09:50.046Z,16.22
2023-05-04T01:12:22.656Z,16.23
2023-05-04T01:14:51.577Z,16.23
2023-05-04T01:17:18.118Z,16.22
2023-05-04T01:19:44.702Z,16.18
2023-05-04T01:22:11.201Z,16.20
2023-05-04T01:24:38.291Z,16.17
2023-05-04T01:27:40.186Z,16.18
2023-05-04T01:30:14.853Z,16.19
2023-05-04T01:32:43.007Z,16.19
2023-05-04T01:35:12.026Z,16.17
2023-05-04T01:37:38.672Z,16.17
2023-05-04T01:40:06.066Z,16.11
2023-05-04T01:42:32.793Z,16.12
2023-05-04T01:44:59.420Z,16.11
2023-05-04T01:47:26.276Z,16.05
2023-05-04T01:49:52.925Z,16.07
2023-05-04T01:52:19.477Z,16.06
2023-05-04T01:54:45.956Z,16.05
2023-05-04T01:57:12.438Z,16.06
2023-05-04T01:59:38.994Z,16.12
2023-05-04T02:02:05.635Z,16.08
2023-05-04T02:04:32.255Z,16.10
2023-05-04T02:06:58.849Z,16.12
2023-05-04T02:09:25.580Z,16.10
2023-05-04T02:11:52.141Z,16.09
2023-05-04T02:14:18.729Z,16.08
2023-05-04T02:16:45.216Z,16.11
2023-05-04T02:19:11.913Z,16.11
2023-05-04T02:21:39.423Z,16.11
2023-05-04T02:24:07.348Z,16.12
2023-05-04T02:26:34.423Z,16.11
2023-05-04T02:29:02.492Z,16.10
2023-05-04T02:31:29.532Z,16.12
2023-05-04T02:33:56.116Z,16.13
2023-05-04T02:36:22.645Z,16.17
2023-05-04T02:38:49.156Z,16.14
2023-05-04T02:41:15.666Z,16.17
2023-05-04T02:43:42.338Z,16.17
2023-05-04T02:46:09.584Z,16.14
2023-05-04T02:48:36.156Z,16.22
2023-05-04T02:51:03.133Z,16.21
2023-05-04T02:53:29.631Z,16.25
2023-05-04T02:55:56.094Z,16.27
2023-05-04T02:58:22.608Z,16.21
2023-05-04T03:00:54.303Z,16.29
2023-05-04T03:03:20.969Z,16.31
2023-05-04T03:05:47.493Z,16.27
2023-05-04T03:08:14.172Z,16.30
2023-05-04T03:10:41.250Z,16.36
2023-05-04T03:13:07.881Z,16.32
2023-05-04T03:15:34.778Z,16.34
2023-05-04T03:18:01.467Z,16.37
2023-05-04T03:20:28.380Z,16.45
2023-05-04T03:22:54.969Z,16.45
2023-05-04T03:25:21.730Z,16.49
2023-05-04T03:27:48.378Z,16.54
2023-05-04T03:30:15.139Z,16.57
2023-05-04T03:32:42.310Z,16.59
2023-05-04T03:35:24.270Z,16.65
2023-05-04T03:37:51.665Z,16.66
2023-05-04T03:40:23.028Z,16.67
2023-05-04T03:42:51.277Z,16.61
2023-05-04T03:45:18.049Z,16.64
2023-05-04T03:47:44.625Z,16.64
2023-05-04T03:50:11.948Z,16.60
2023-05-04T03:52:38.536Z,16.64
2023-05-04T03:55:05.612Z,16.64
2023-05-04T03:57:32.113Z,16.63
2023-05-04T03:59:58.697Z,16.64
2023-05-04T04:02:25.399Z,16.58
2023-05-04T04:04:52.063Z,16.57
2023-05-04T04:07:18.617Z,16.61
2023-05-04T04:09:46.423Z,16.58
2023-05-04T04:12:13.591Z,16.60
2023-05-04T04:14:40.105Z,16.59
2023-05-04T04:17:06.700Z,16.62
2023-05-04T04:19:33.225Z,16.64
2023-05-04T04:22:00.038Z,16.62
2023-05-04T04:24:26.565Z,16.62
2023-05-04T04:26:53.412Z,16.66
2023-05-04T04:29:19.981Z,16.62
2023-05-04T04:31:46.749Z,16.56
2023-05-04T04:34:13.470Z,16.58
2023-05-04T04:36:40.317Z,16.59
2023-05-04T04:39:06.884Z,16.57
2023-05-04T04:41:33.493Z,16.53
2023-05-04T04:44:00.032Z,16.59
2023-05-04T04:46:28.214Z,16.57
2023-05-04T04:48:55.347Z,16.57
2023-05-04T04:51:21.939Z,16.56
2023-05-04T04:53:48.703Z,16.57
2023-05-04T04:56:16.090Z,16.54
2023-05-04T04:58:42.653Z,16.57
2023-05-04T05:01:09.348Z,16.55
2023-05-04T05:03:36.216Z,16.58
2023-05-04T05:06:02.836Z,16.59
2023-05-04T05:08:29.470Z,16.62
2023-05-04T05:10:56.322Z,16.60
2023-05-04T05:13:22.879Z,16.63
2023-05-04T05:15:49.530Z,16.64
2023-05-04T05:18:16.022Z,16.61
2023-05-04T05:20:42.522Z,16.61
2023-05-04T05:23:09.021Z,16.61
2023-05-04T05:25:35.601Z,16.63
2023-05-04T05:28:02.189Z,16.69
2023-05-04T05:30:28.794Z,16.71
2023-05-04T05:32:55.410Z,16.69
2023-05-04T05:35:22.001Z,16.72
2023-05-04T05:37:49.749Z,16.71
2023-05-04T05:40:16.335Z,16.73
2023-05-04T05:42:42.955Z,16.76
2023-05-04T05:45:10.474Z,16.85
2023-05-04T05:47:37.523Z,16.85
2023-05-04T05:50:04.811Z,16.85
2023-05-04T05:52:31.591Z,16.81
2023-05-04T05:54:59.834Z,16.87
2023-05-04T05:57:27.549Z,16.91
2023-05-04T05:59:54.283Z,16.93
2023-05-04T06:02:21.241Z,16.94
2023-05-04T06:04:47.953Z,16.84
2023-05-04T06:07:14.622Z,16.92
2023-05-04T06:09:41.451Z,16.99
2023-05-04T06:12:12.373Z,17.00
2023-05-04T06:14:41.965Z,17.05
2023-05-04T06:17:08.627Z,17.05
2023-05-04T06:19:38.468Z,17.04
2023-05-04T06:22:05.986Z,17.03
2023-05-04T06:24:32.994Z,17.12
2023-05-04T06:26:59.522Z,17.14
2023-05-04T06:29:26.041Z,17.18
2023-05-04T06:31:53.042Z,17.18
2023-05-04T06:34:19.716Z,17.14
2023-05-04T06:36:46.336Z,17.17
2023-05-04T06:39:12.944Z,17.26
2023-05-04T06:41:39.463Z,17.29
2023-05-04T06:44:06.307Z,17.37
2023-05-04T06:46:37.448Z,17.43
2023-05-04T06:49:04.498Z,17.47
2023-05-04T06:51:31.911Z,17.42
2023-05-04T06:53:59.726Z,17.36
2023-05-04T06:56:26.333Z,17.48
2023-05-04T06:58:53.252Z,17.56
2023-05-04T07:01:19.853Z,17.65
2023-05-04T07:03:46.492Z,17.68
2023-05-04T07:06:13.032Z,17.76
2023-05-04T07:08:39.567Z,17.71
2023-05-04T07:11:06.468Z,17.69
2023-05-04T07:13:33.464Z,17.71
2023-05-04T07:16:00.076Z,17.79
2023-05-04T07:18:26.622Z,17.90
2023-05-04T07:20:56.153Z,17.92
2023-05-04T07:23:28.706Z,18.06
2023-05-04T07:25:55.237Z,18.08
2023-05-04T07:28:21.771Z,18.10
2023-05-04T07:30:48.268Z,18.06
2023-05-04T07:33:14.845Z,18.13
2023-05-04T07:35:41.461Z,18.13
2023-05-04T07:38:08.401Z,18.14
2023-05-04T07:40:34.955Z,18.13
2023-05-04T07:43:01.571Z,18.12
2023-05-04T07:45:28.150Z,18.14
2023-05-04T07:47:55.321Z,18.15
2023-05-04T07:50:21.888Z,18.13
2023-05-04T07:52:49.362Z,18.00
2023-05-04T07:55:15.972Z,17.96
2023-05-04T07:57:42.832Z,17.98
2023-05-04T08:00:10.927Z,17.91
2023-05-04T08:02:37.993Z,17.89
2023-05-04T08:05:05.007Z,17.86
2023-05-04T08:07:31.522Z,17.91
2023-05-04T08:09:58.625Z,17.87
2023-05-04T08:12:27.087Z,18.00
2023-05-04T08:14:53.776Z,18.16
2023-05-04T08:17:20.301Z,18.22
2023-05-04T08:19:46.815Z,18.23
2023-05-04T08:22:13.420Z,18.20
2023-05-04T08:24:39.962Z,18.23
2023-05-04T08:27:08.380Z,18.27
2023-05-04T08:29:37.670Z,18.24
2023-05-04T08:32:04.871Z,18.26
2023-05-04T08:34:31.475Z,18.27
2023-05-04T08:36:58.585Z,18.29
2023-05-04T08:39:25.394Z,18.31
2023-05-04T08:41:52.007Z,18.37
2023-05-04T08:44:21.313Z,18.44
2023-05-04T08:46:53.302Z,18.38
2023-05-04T08:49:22.744Z,18.34
2023-05-04T08:51:50.678Z,18.35
2023-05-04T08:54:18.530Z,18.39
2023-05-04T08:56:47.136Z,18.40
2023-05-04T08:59:21.468Z,18.37
2023-05-04T09:01:52.950Z,18.41
2023-05-04T09:04:20.761Z,18.52
2023-05-04T09:06:47.597Z,18.56
2023-05-04T09:09:14.490Z,18.51
2023-05-04T09:11:41.244Z,18.55
2023-05-04T09:14:08.006Z,18.68
2023-05-04T09:16:38.087Z,18.75
2023-05-04T09:19:16.372Z,18.75
2023-05-04T09:21:44.090Z,18.70
2023-05-04T09:24:12.588Z,18.85
2023-05-04T09:26:39.380Z,18.90
2023-05-04T09:29:16.114Z,18.94
2023-05-04T09:31:52.693Z,18.85
2023-05-04T09:34:22.315Z,18.81
2023-05-04T09:37:02.380Z,18.84
2023-05-04T09:39:29.998Z,18.82
2023-05-04T09:41:56.906Z,18.93
2023-05-04T09:44:26.917Z,19.06
2023-05-04T09:46:56.669Z,19.07
2023-05-04T09:49:33.544Z,19.13
2023-05-04T09:52:04.067Z,19.17
2023-05-04T09:54:34.830Z,19.15
2023-05-04T09:57:15.588Z,19.12
2023-05-04T09:59:42.883Z,19.03
2023-05-04T10:02:21.841Z,19.02
2023-05-04T10:04:50.557Z,19.22
2023-05-04T10:07:18.094Z,19.39
2023-05-04T10:09:46.352Z,19.47
2023-05-04T10:12:12.955Z,19.50
2023-05-04T10:14:39.701Z,19.53
2023-05-04T10:17:25.808Z,19.54
2023-05-04T10:20:10.804Z,19.67
2023-05-04T10:23:02.523Z,19.78
2023-05-04T10:25:44.476Z,19.73
2023-05-04T10:28:16.889Z,19.86
2023-05-04T10:30:43.863Z,19.68
2023-05-04T10:33:11.071Z,19.63
2023-05-04T10:35:38.657Z,19.68
2023-05-04T10:38:06.409Z,19.72
2023-05-04T10:40:40.080Z,19.78
2023-05-04T10:43:08.295Z,19.76
2023-05-04T10:45:41.824Z,19.75
2023-05-04T10:48:09.545Z,19.88
2023-05-04T10:50:43.999Z,19.95
2023-05-04T10:53:15.925Z,19.88
2023-05-04T10:55:44.566Z,20.11
2023-05-04T10:58:14.896Z,20.09
2023-05-04T11:00:43.480Z,20.04
2023-05-04T11:03:11.892Z,20.15
2023-05-04T11:05:46.158Z,20.33
2023-05-04T11:08:16.069Z,20.20
2023-05-04T11:10:43.324Z,20.30
2023-05-04T11:13:12.856Z,20.32
2023-05-04T11:15:47.358Z,20.41
2023-05-04T11:18:14.184Z,20.55
2023-05-04T11:20:41.450Z,20.44
2023-05-04T11:23:10.344Z,20.64
2023-05-04T11:25:38.416Z,20.52
2023-05-04T11:28:05.024Z,20.64
2023-05-04T11:30:35.650Z,20.75
2023-05-04T11:33:05.278Z,20.69
2023-05-04T11:35:32.292Z,20.71
2023-05-04T11:37:58.989Z,20.94
2023-05-04T11:40:26.956Z,21.00
2023-05-04T11:42:56.754Z,21.06
2023-05-04T11:45:24.799Z,20.98
2023-05-04T11:47:53.270Z,20.71
2023-05-04T11:50:21.096Z,21.01
2023-05-04T11:52:48.437Z,21.01
2023-05-04T11:55:31.597Z,21.09
2023-05-04T11:58:00.128Z,21.02
2023-05-04T12:00:40.271Z,20.97
2023-05-04T12:03:10.117Z,20.90
2023-05-04T12:05:37.458Z,20.90
2023-05-04T12:08:04.990Z,21.09
2023-05-04T12:10:34.553Z,21.35
2023-05-04T12:13:02.016Z,21.36
2023-05-04T12:15:31.043Z,21.50
2023-05-04T12:17:58.847Z,21.56
2023-05-04T12:20:28.579Z,21.67
2023-05-04T12:22:58.595Z,21.63
2023-05-04T12:25:25.268Z,21.60
2023-05-04T12:27:51.812Z,21.71
2023-05-04T12:30:18.493Z,21.80
2023-05-04T12:32:45.990Z,21.74
2023-05-04T12:35:12.699Z,21.98
2023-05-04T12:37:39.401Z,22.11
2023-05-04T12:40:21.086Z,22.11
2023-05-04T12:42:54.749Z,22.09
2023-05-04T12:45:22.536Z,22.02
2023-05-04T12:47:49.273Z,22.18
2023-05-04T12:50:15.947Z,22.20
2023-05-04T12:52:42.712Z,22.26
2023-05-04T12:55:09.405Z,22.21
2023-05-04T12:57:36.246Z,22.15
2023-05-04T13:00:03.785Z,22.29
2023-05-04T13:02:30.380Z,22.37
2023-05-04T13:04:57.011Z,22.29
2023-05-04T13:07:23.647Z,22.24
2023-05-04T13:09:50.203Z,22.21
2023-05-04T13:12:16.779Z,22.21
2023-05-04T13:14:44.015Z,22.06
2023-05-04T13:17:10.507Z,22.17
2023-05-04T13:19:37.140Z,22.05
2023-05-04T13:22:04.780Z,22.16
2023-05-04T13:24:31.678Z,22.47
2023-05-04T13:26:58.338Z,22.32
2023-05-04T13:29:24.887Z,22.28
2023-05-04T13:31:51.458Z,22.45
2023-05-04T13:34:18.148Z,22.54
2023-05-04T13:36:45.146Z,22.68
2023-05-04T13:39:11.855Z,22.75
2023-05-04T13:41:38.398Z,22.70
2023-05-04T13:44:05.018Z,22.76
2023-05-04T13:46:31.611Z,22.94
2023-05-04T13:48:58.131Z,22.96
2023-05-04T13:51:24.698Z,22.97
2023-05-04T13:53:51.242Z,23.08
2023-05-04T13:56:17.783Z,23.07
2023-05-04T13:58:44.548Z,23.06
2023-05-04T14:01:11.519Z,23.18
2023-05-04T14:03:38.064Z,23.02
2023-05-04T14:06:04.776Z,22.88
2023-05-04T14:08:31.273Z,22.90
2023-05-04T14:10:58.679Z,22.94
2023-05-04T14:13:25.280Z,23.10
2023-05-04T14:15:52.239Z,23.11
2023-05-04T14:18:18.820Z,23.14
2023-05-04T14:20:46.059Z,23.14
2023-05-04T14:23:12.582Z,23.01
2023-05-04T14:25:41.995Z,23.23
2023-05-04T14:28:08.952Z,23.13
2023-05-04T14:30:35.524Z,23.09
2023-05-04T14:33:03.698Z,23.14
2023-05-04T14:35:30.537Z,23.15
2023-05-04T14:37:57.046Z,22.96
2023-05-04T14:40:23.849Z,23.05
2023-05-04T14:42:50.590Z,23.12
2023-05-04T14:45:17.877Z,23.26
2023-05-04T14:47:44.407Z,23.30
2023-05-04T14:50:11.569Z,23.47
2023-05-04T14:52:38.253Z,23.42
2023-05-04T14:55:06.611Z,23.29
2023-05-04T14:57:33.694Z,23.23
2023-05-04T15:00:00.337Z,23.51
2023-05-04T15:02:26.951Z,23.34
2023-05-04T15:04:53.469Z,23.35
2023-05-04T15:07:21.024Z,23.62
2023-05-04T15:09:47.833Z,23.97
2023-05-04T15:12:14.872Z,24.36
2023-05-04T15:14:41.393Z,24.35
2023-05-04T15:17:07.864Z,24.52
2023-05-04T15:19:37.400Z,24.78
2023-05-04T15:22:04.490Z,24.91
2023-05-04T15:24:31.526Z,25.11
2023-05-04T15:26:58.063Z,25.26
2023-05-04T15:29:25.058Z,25.35
2023-05-04T15:31:51.672Z,25.06
2023-05-04T15:34:18.555Z,25.34
2023-05-04T15:36:45.440Z,25.69
2023-05-04T15:39:12.397Z,25.45
2023-05-04T15:41:39.276Z,25.46
2023-05-04T15:44:06.924Z,25.36
2023-05-04T15:46:34.174Z,25.73
2023-05-04T15:49:00.846Z,25.92
2023-05-04T15:51:29.716Z,26.18
2023-05-04T15:53:56.247Z,26.14
2023-05-04T15:56:22.777Z,26.61
2023-05-04T15:58:49.645Z,26.33
2023-05-04T16:01:16.665Z,26.58
2023-05-04T16:03:43.760Z,25.93
2023-05-04T16:06:10.376Z,26.36
2023-05-04T16:08:37.008Z,26.33
2023-05-04T16:11:04.528Z,25.78
2023-05-04T16:13:31.226Z,26.33
2023-05-04T16:15:58.109Z,26.34
2023-05-04T16:18:24.858Z,26.87
2023-05-04T16:20:51.656Z,26.01
2023-05-04T16:23:18.452Z,25.66
2023-05-04T16:25:44.972Z,26.06
2023-05-04T16:28:11.623Z,25.84
2023-05-04T16:30:38.500Z,25.84
2023-05-04T16:33:05.402Z,25.79
2023-05-04T16:35:32.160Z,25.55
2023-05-04T16:37:59.014Z,25.78
2023-05-04T16:40:26.555Z,25.47
2023-05-04T16:42:53.174Z,24.99
2023-05-04T16:45:20.514Z,24.74
2023-05-04T16:47:47.153Z,24.68
2023-05-04T16:50:14.265Z,24.93
2023-05-04T16:52:41.157Z,25.02
2023-05-04T16:55:11.284Z,24.74
2023-05-04T16:57:38.563Z,24.90
2023-05-04T17:00:06.839Z,25.20
2023-05-04T17:02:33.923Z,25.26
2023-05-04T17:05:00.631Z,24.87
2023-05-04T17:07:27.270Z,24.65
2023-05-04T17:09:54.102Z,25.22
2023-05-04T17:12:21.979Z,25.57
2023-05-04T17:14:48.654Z,25.80
2023-05-04T17:17:15.182Z,25.99
2023-05-04T17:19:42.019Z,26.11
2023-05-04T17:22:12.023Z,25.15
2023-05-04T17:24:38.686Z,24.71
2023-05-04T17:27:05.303Z,24.75
2023-05-04T17:29:31.871Z,24.57
2023-05-04T17:31:58.705Z,24.88
2023-05-04T17:34:25.507Z,25.16
2023-05-04T17:36:51.998Z,25.31
2023-05-04T17:39:18.838Z,25.49
2023-05-04T17:41:48.893Z,25.12
2023-05-04T17:44:16.427Z,25.27
2023-05-04T17:46:43.566Z,25.27
2023-05-04T17:49:10.503Z,25.35
2023-05-04T17:51:37.481Z,25.16
2023-05-04T17:54:04.089Z,25.13
2023-05-04T17:56:30.595Z,25.14
2023-05-04T17:58:57.283Z,25.09
2023-05-04T18:01:26.049Z,24.73
2023-05-04T18:03:52.625Z,24.70
2023-05-04T18:06:19.720Z,24.65
2023-05-04T18:08:46.306Z,24.30
2023-05-04T18:11:12.923Z,24.15
2023-05-04T18:13:39.535Z,23.87
2023-05-04T18:16:06.263Z,23.70
2023-05-04T18:18:32.754Z,23.58
2023-05-04T18:21:00.825Z,23.49
2023-05-04T18:23:27.450Z,23.38
2023-05-04T18:25:54.004Z,23.31
2023-05-04T18:28:20.558Z,23.16
2023-05-04T18:30:47.082Z,23.11
2023-05-04T18:33:13.673Z,23.06
2023-05-04T18:35:40.287Z,23.02
2023-05-04T18:38:07.268Z,22.99
2023-05-04T18:40:33.834Z,22.95
2023-05-04T18:43:00.818Z,22.90
2023-05-04T18:45:27.985Z,22.90
2023-05-04T18:47:54.662Z,22.93
2023-05-04T18:50:21.409Z,22.89
2023-05-04T18:52:47.996Z,22.85
2023-05-04T18:55:14.572Z,22.85
2023-05-04T18:57:41.124Z,22.87
2023-05-04T19:00:09.302Z,22.85
2023-05-04T19:02:36.840Z,22.87
2023-05-04T19:05:03.627Z,22.82
2023-05-04T19:07:30.352Z,22.82
2023-05-04T19:09:57.013Z,22.78
2023-05-04T19:12:23.947Z,22.75
2023-05-04T19:14:51.168Z,22.69
2023-05-04T19:17:18.627Z,22.66
2023-05-04T19:19:45.396Z,22.58
2023-05-04T19:22:13.348Z,22.57
2023-05-04T19:24:40.003Z,22.52
2023-05-04T19:27:07.408Z,22.48
2023-05-04T19:29:34.654Z,22.44
2023-05-04T19:32:05.585Z,22.42
2023-05-04T19:34:42.912Z,22.38
2023-05-04T19:37:09.574Z,22.31
2023-05-04T19:39:36.582Z,22.24
2023-05-04T19:42:03.447Z,22.19
2023-05-04T19:44:30.347Z,22.16
2023-05-04T19:46:56.934Z,22.13
2023-05-04T19:49:24.974Z,22.09
2023-05-04T19:51:51.494Z,22.02
2023-05-04T19:54:18.058Z,21.98
2023-05-04T19:56:44.582Z,21.93
2023-05-04T19:59:11.385Z,21.88
2023-05-04T20:01:37.984Z,21.87
2023-05-04T20:04:06.289Z,21.84
2023-05-04T20:06:32.966Z,21.82
2023-05-04T20:08:59.479Z,21.76
2023-05-04T20:11:26.224Z,21.74
2023-05-04T20:13:55.239Z,21.71
2023-05-04T20:16:22.281Z,21.69
2023-05-04T20:18:49.147Z,21.68
2023-05-04T20:21:15.668Z,21.66
2023-05-04T20:23:42.240Z,21.68
2023-05-04T20:26:08.811Z,21.68
2023-05-04T20:28:35.434Z,21.62
2023-05-04T20:31:01.908Z,21.55
2023-05-04T20:33:28.429Z,21.52
2023-05-04T20:35:55.005Z,21.46
2023-05-04T20:38:21.547Z,21.41
2023-05-04T20:40:48.681Z,21.35
2023-05-04T20:43:16.398Z,21.31
2023-05-04T20:45:42.983Z,21.19
2023-05-04T20:48:09.613Z,21.12
2023-05-04T20:50:36.172Z,21.03
2023-05-04T20:53:02.846Z,20.94
2023-05-04T20:55:29.656Z,20.84
2023-05-04T20:57:56.185Z,20.82
2023-05-04T21:00:24.437Z,20.78
2023-05-04T21:02:51.185Z,20.78
2023-05-04T21:05:17.859Z,20.73
2023-05-04T21:07:44.346Z,20.71
2023-05-04T21:10:11.269Z,20.62
2023-05-04T21:12:37.867Z,20.62
2023-05-04T21:15:05.543Z,20.55
2023-05-04T21:17:32.093Z,20.52
2023-05-04T21:19:58.729Z,20.51
2023-05-04T21:22:25.304Z,20.51
2023-05-04T21:24:51.922Z,20.44
2023-05-04T21:27:18.572Z,20.44
2023-05-04T21:29:45.028Z,20.34
2023-05-04T21:32:11.884Z,20.32
2023-05-04T21:34:38.420Z,20.25
2023-05-04T21:37:04.960Z,20.19
2023-05-04T21:39:31.779Z,20.09
2023-05-04T21:41:58.481Z,20.09
2023-05-04T21:44:25.082Z,20.07
2023-05-04T21:46:51.910Z,20.00
2023-05-04T21:49:18.500Z,19.91
2023-05-04T21:51:45.021Z,19.87
2023-05-04T21:54:11.641Z,19.81
2023-05-04T21:56:40.578Z,19.77
2023-05-04T21:59:07.070Z,19.78
2023-05-04T22:01:33.698Z,19.73
2023-05-04T22:04:00.330Z,19.67
2023-05-04T22:06:27.214Z,19.57
2023-05-04T22:08:53.755Z,19.55
2023-05-04T22:11:20.439Z,19.52
2023-05-04T22:13:46.906Z,19.49
2023-05-04T22:16:13.845Z,19.43
2023-05-04T22:18:40.933Z,19.44
2023-05-04T22:21:07.542Z,19.39
2023-05-04T22:23:34.127Z,19.27
2023-05-04T22:26:00.677Z,19.23
2023-05-04T22:28:27.194Z,19.24
2023-05-04T22:30:54.028Z,19.16
2023-05-04T22:33:20.853Z,19.16
2023-05-04T22:35:47.402Z,19.08
2023-05-04T22:38:14.777Z,19.00
2023-05-04T22:40:43.046Z,18.95
2023-05-04T22:43:09.833Z,18.97
2023-05-04T22:45:36.959Z,18.90
2023-05-04T22:48:03.602Z,18.82
2023-05-04T22:50:30.491Z,18.81
2023-05-04T22:52:57.117Z,18.79
2023-05-04T22:55:23.909Z,18.66
2023-05-04T22:57:50.465Z,18.61
2023-05-04T23:00:18.344Z,18.63
2023-05-04T23:02:44.966Z,18.56
2023-05-04T23:05:11.813Z,18.52
2023-05-04T23:07:38.471Z,18.47
2023-05-04T23:10:05.552Z,18.50
2023-05-04T23:12:32.346Z,18.40
2023-05-04T23:14:58.892Z,18.26
2023-05-04T23:17:25.723Z,18.26
2023-05-04T23:19:52.453Z,18.22
2023-05-04T23:22:18.985Z,18.24
2023-05-04T23:24:45.535Z,18.06
2023-05-04T23:27:12.373Z,18.13
2023-05-04T23:29:38.959Z,18.05
2023-05-04T23:32:06.045Z,18.06
2023-05-04T23:34:32.677Z,18.06
2023-05-04T23:36:59.310Z,17.99
2023-05-04T23:39:25.863Z,17.94
2023-05-04T23:41:52.383Z,17.94
2023-05-04T23:44:21.155Z,17.93
2023-05-04T23:46:48.546Z,17.87
2023-05-04T23:49:15.068Z,17.85
2023-05-04T23:51:41.603Z,17.75
2023-05-04T23:54:08.121Z,17.75
2023-05-04T23:56:34.606Z,17.70
2023-05-04T23:59:01.153Z,17.62
